sensor_id;sensor_type;location;lat;lon;timestamp;P1;durP1;ratioP1;P2;durP2;ratioP2
66012;SDS011;52783;50.502;8.190;2023-07-16T00:01:56;11.48;;;3.40;;
66012;SDS011;52783;50.502;8.190;2023-07-16T00:04:22;6.25;;;2.45;;
66012;SDS011;52783;50.502;8.190;2023-07-16T00:06:48;5.82;;;2.53;;
66012;SDS011;52783;50.502;8.190;2023-07-16T00:09:13;2.90;;;2.40;;
66012;SDS011;52783;50.502;8.190;2023-07-16T00:11:39;7.95;;;2.45;;
66012;SDS011;52783;50.502;8.190;2023-07-16T00:14:04;6.32;;;2.47;;
66012;SDS011;52783;50.502;8.190;2023-07-16T00:16:30;3.35;;;2.20;;
66012;SDS011;52783;50.502;8.190;2023-07-16T00:18:56;6.47;;;2.10;;
66012;SDS011;52783;50.502;8.190;2023-07-16T00:21:21;4.05;;;2.22;;
66012;SDS011;52783;50.502;8.190;2023-07-16T00:23:47;4.03;;;1.98;;
66012;SDS011;52783;50.502;8.190;2023-07-16T00:26:12;2.38;;;2.00;;
66012;SDS011;52783;50.502;8.190;2023-07-16T00:28:38;3.28;;;2.30;;
66012;SDS011;52783;50.502;8.190;2023-07-16T00:31:04;3.00;;;2.10;;
66012;SDS011;52783;50.502;8.190;2023-07-16T00:33:29;3.65;;;2.00;;
66012;SDS011;52783;50.502;8.190;2023-07-16T00:35:55;3.83;;;2.20;;
66012;SDS011;52783;50.502;8.190;2023-07-16T00:38:20;8.73;;;2.33;;
66012;SDS011;52783;50.502;8.190;2023-07-16T00:40:46;3.35;;;2.20;;
66012;SDS011;52783;50.502;8.190;2023-07-16T00:43:12;7.15;;;2.20;;
66012;SDS011;52783;50.502;8.190;2023-07-16T00:45:39;4.95;;;2.50;;
66012;SDS011;52783;50.502;8.190;2023-07-16T00:48:06;3.20;;;2.05;;
66012;SDS011;52783;50.502;8.190;2023-07-16T00:50:32;2.33;;;2.05;;
66012;SDS011;52783;50.502;8.190;2023-07-16T00:53:00;5.03;;;1.95;;
66012;SDS011;52783;50.502;8.190;2023-07-16T00:55:29;3.00;;;1.77;;
66012;SDS011;52783;50.502;8.190;2023-07-16T00:57:55;6.00;;;2.15;;
66012;SDS011;52783;50.502;8.190;2023-07-16T01:00:27;7.05;;;1.70;;
66012;SDS011;52783;50.502;8.190;2023-07-16T01:02:53;4.15;;;2.10;;
66012;SDS011;52783;50.502;8.190;2023-07-16T01:05:19;4.15;;;1.60;;
66012;SDS011;52783;50.502;8.190;2023-07-16T01:07:47;3.15;;;2.05;;
66012;SDS011;52783;50.502;8.190;2023-07-16T01:10:20;2.28;;;1.70;;
66012;SDS011;52783;50.502;8.190;2023-07-16T01:12:49;2.15;;;1.42;;
66012;SDS011;52783;50.502;8.190;2023-07-16T01:15:16;3.47;;;1.83;;
66012;SDS011;52783;50.502;8.190;2023-07-16T01:17:42;4.18;;;1.95;;
66012;SDS011;52783;50.502;8.190;2023-07-16T01:20:07;2.50;;;1.70;;
66012;SDS011;52783;50.502;8.190;2023-07-16T01:22:35;6.35;;;2.13;;
66012;SDS011;52783;50.502;8.190;2023-07-16T01:25:32;3.03;;;1.73;;
66012;SDS011;52783;50.502;8.190;2023-07-16T01:30:48;6.10;;;2.13;;
66012;SDS011;52783;50.502;8.190;2023-07-16T01:33:16;2.00;;;1.70;;
66012;SDS011;52783;50.502;8.190;2023-07-16T01:35:45;3.47;;;1.90;;
66012;SDS011;52783;50.502;8.190;2023-07-16T01:38:12;4.72;;;1.98;;
66012;SDS011;52783;50.502;8.190;2023-07-16T01:40:38;10.88;;;2.03;;
66012;SDS011;52783;50.502;8.190;2023-07-16T01:43:04;3.40;;;1.70;;
66012;SDS011;52783;50.502;8.190;2023-07-16T01:45:29;3.25;;;1.80;;
66012;SDS011;52783;50.502;8.190;2023-07-16T01:50:52;3.90;;;1.70;;
66012;SDS011;52783;50.502;8.190;2023-07-16T01:53:18;13.55;;;1.90;;
66012;SDS011;52783;50.502;8.190;2023-07-16T01:55:43;8.18;;;1.88;;
66012;SDS011;52783;50.502;8.190;2023-07-16T01:58:09;6.72;;;1.90;;
66012;SDS011;52783;50.502;8.190;2023-07-16T02:00:35;3.63;;;1.95;;
66012;SDS011;52783;50.502;8.190;2023-07-16T02:03:01;5.72;;;1.83;;
66012;SDS011;52783;50.502;8.190;2023-07-16T02:05:27;3.78;;;2.08;;
66012;SDS011;52783;50.502;8.190;2023-07-16T02:07:52;7.28;;;2.30;;
66012;SDS011;52783;50.502;8.190;2023-07-16T02:10:18;9.90;;;2.40;;
66012;SDS011;52783;50.502;8.190;2023-07-16T02:12:44;5.10;;;1.83;;
66012;SDS011;52783;50.502;8.190;2023-07-16T02:15:09;3.42;;;1.80;;
66012;SDS011;52783;50.502;8.190;2023-07-16T02:17:35;7.53;;;1.90;;
66012;SDS011;52783;50.502;8.190;2023-07-16T02:20:00;5.63;;;1.77;;
66012;SDS011;52783;50.502;8.190;2023-07-16T02:22:27;3.70;;;2.03;;
66012;SDS011;52783;50.502;8.190;2023-07-16T02:24:52;8.82;;;1.92;;
66012;SDS011;52783;50.502;8.190;2023-07-16T02:27:18;7.88;;;1.98;;
66012;SDS011;52783;50.502;8.190;2023-07-16T02:29:43;3.15;;;1.98;;
66012;SDS011;52783;50.502;8.190;2023-07-16T02:32:09;6.18;;;1.98;;
66012;SDS011;52783;50.502;8.190;2023-07-16T02:34:34;6.10;;;1.92;;
66012;SDS011;52783;50.502;8.190;2023-07-16T02:37:00;4.80;;;2.20;;
66012;SDS011;52783;50.502;8.190;2023-07-16T02:39:25;7.15;;;2.30;;
66012;SDS011;52783;50.502;8.190;2023-07-16T02:41:51;4.10;;;2.20;;
66012;SDS011;52783;50.502;8.190;2023-07-16T02:44:16;6.72;;;2.20;;
66012;SDS011;52783;50.502;8.190;2023-07-16T02:46:42;2.42;;;2.05;;
66012;SDS011;52783;50.502;8.190;2023-07-16T02:49:09;7.05;;;2.15;;
66012;SDS011;52783;50.502;8.190;2023-07-16T02:51:34;5.55;;;2.20;;
66012;SDS011;52783;50.502;8.190;2023-07-16T02:54:00;3.08;;;1.73;;
66012;SDS011;52783;50.502;8.190;2023-07-16T02:56:25;5.97;;;2.03;;
66012;SDS011;52783;50.502;8.190;2023-07-16T02:58:51;6.22;;;2.53;;
66012;SDS011;52783;50.502;8.190;2023-07-16T03:01:16;2.33;;;1.75;;
66012;SDS011;52783;50.502;8.190;2023-07-16T03:03:42;5.60;;;2.13;;
66012;SDS011;52783;50.502;8.190;2023-07-16T03:06:07;11.85;;;2.80;;
66012;SDS011;52783;50.502;8.190;2023-07-16T03:08:33;7.00;;;2.20;;
66012;SDS011;52783;50.502;8.190;2023-07-16T03:10:59;3.75;;;1.98;;
66012;SDS011;52783;50.502;8.190;2023-07-16T03:13:25;6.28;;;2.35;;
66012;SDS011;52783;50.502;8.190;2023-07-16T03:15:50;2.65;;;1.83;;
66012;SDS011;52783;50.502;8.190;2023-07-16T03:18:18;8.30;;;1.90;;
66012;SDS011;52783;50.502;8.190;2023-07-16T03:20:44;9.02;;;2.03;;
66012;SDS011;52783;50.502;8.190;2023-07-16T03:23:09;7.88;;;2.10;;
66012;SDS011;52783;50.502;8.190;2023-07-16T03:25:35;6.30;;;2.10;;
66012;SDS011;52783;50.502;8.190;2023-07-16T03:28:01;4.93;;;1.95;;
66012;SDS011;52783;50.502;8.190;2023-07-16T03:30:26;5.50;;;2.00;;
66012;SDS011;52783;50.502;8.190;2023-07-16T03:32:52;5.63;;;2.20;;
66012;SDS011;52783;50.502;8.190;2023-07-16T03:35:18;3.42;;;2.15;;
66012;SDS011;52783;50.502;8.190;2023-07-16T03:37:43;4.03;;;1.83;;
66012;SDS011;52783;50.502;8.190;2023-07-16T03:40:13;2.97;;;1.85;;
66012;SDS011;52783;50.502;8.190;2023-07-16T03:42:43;4.63;;;2.55;;
66012;SDS011;52783;50.502;8.190;2023-07-16T03:45:09;4.18;;;1.95;;
66012;SDS011;52783;50.502;8.190;2023-07-16T03:47:35;7.47;;;2.30;;
66012;SDS011;52783;50.502;8.190;2023-07-16T03:50:01;6.07;;;1.80;;
66012;SDS011;52783;50.502;8.190;2023-07-16T03:52:27;7.40;;;2.33;;
66012;SDS011;52783;50.502;8.190;2023-07-16T03:54:53;4.32;;;2.00;;
66012;SDS011;52783;50.502;8.190;2023-07-16T03:57:19;8.02;;;2.30;;
66012;SDS011;52783;50.502;8.190;2023-07-16T03:59:45;6.43;;;2.00;;
66012;SDS011;52783;50.502;8.190;2023-07-16T04:02:11;4.00;;;1.98;;
66012;SDS011;52783;50.502;8.190;2023-07-16T04:04:36;8.40;;;2.05;;
66012;SDS011;52783;50.502;8.190;2023-07-16T04:07:02;5.82;;;2.00;;
66012;SDS011;52783;50.502;8.190;2023-07-16T04:09:27;6.25;;;2.38;;
66012;SDS011;52783;50.502;8.190;2023-07-16T04:11:53;2.75;;;1.90;;
66012;SDS011;52783;50.502;8.190;2023-07-16T04:14:18;7.95;;;2.13;;
66012;SDS011;52783;50.502;8.190;2023-07-16T04:16:44;12.25;;;2.20;;
66012;SDS011;52783;50.502;8.190;2023-07-16T04:19:09;8.13;;;2.20;;
66012;SDS011;52783;50.502;8.190;2023-07-16T04:21:35;7.40;;;1.80;;
66012;SDS011;52783;50.502;8.190;2023-07-16T04:24:03;5.93;;;2.33;;
66012;SDS011;52783;50.502;8.190;2023-07-16T04:26:30;5.50;;;2.15;;
66012;SDS011;52783;50.502;8.190;2023-07-16T04:28:56;4.00;;;1.92;;
66012;SDS011;52783;50.502;8.190;2023-07-16T04:31:22;8.05;;;2.22;;
66012;SDS011;52783;50.502;8.190;2023-07-16T04:33:47;8.98;;;2.40;;
66012;SDS011;52783;50.502;8.190;2023-07-16T04:36:13;6.80;;;2.28;;
66012;SDS011;52783;50.502;8.190;2023-07-16T04:38:39;4.95;;;2.00;;
66012;SDS011;52783;50.502;8.190;2023-07-16T04:41:04;9.25;;;2.85;;
66012;SDS011;52783;50.502;8.190;2023-07-16T04:43:30;8.57;;;2.10;;
66012;SDS011;52783;50.502;8.190;2023-07-16T04:45:55;7.40;;;2.30;;
66012;SDS011;52783;50.502;8.190;2023-07-16T04:48:21;3.75;;;1.98;;
66012;SDS011;52783;50.502;8.190;2023-07-16T04:50:46;6.30;;;2.33;;
66012;SDS011;52783;50.502;8.190;2023-07-16T04:53:12;7.10;;;2.03;;
66012;SDS011;52783;50.502;8.190;2023-07-16T04:55:38;8.68;;;2.60;;
66012;SDS011;52783;50.502;8.190;2023-07-16T04:58:04;7.72;;;2.10;;
66012;SDS011;52783;50.502;8.190;2023-07-16T05:00:33;6.95;;;2.00;;
66012;SDS011;52783;50.502;8.190;2023-07-16T05:02:59;6.18;;;1.92;;
66012;SDS011;52783;50.502;8.190;2023-07-16T05:05:25;3.58;;;2.03;;
66012;SDS011;52783;50.502;8.190;2023-07-16T05:07:51;5.65;;;1.85;;
66012;SDS011;52783;50.502;8.190;2023-07-16T05:10:16;5.68;;;1.85;;
66012;SDS011;52783;50.502;8.190;2023-07-16T05:12:42;5.28;;;2.60;;
66012;SDS011;52783;50.502;8.190;2023-07-16T05:15:08;6.82;;;2.17;;
66012;SDS011;52783;50.502;8.190;2023-07-16T05:17:34;6.07;;;1.75;;
66012;SDS011;52783;50.502;8.190;2023-07-16T05:19:59;3.55;;;1.73;;
66012;SDS011;52783;50.502;8.190;2023-07-16T05:22:25;7.53;;;2.20;;
66012;SDS011;52783;50.502;8.190;2023-07-16T05:24:50;6.35;;;2.25;;
66012;SDS011;52783;50.502;8.190;2023-07-16T05:27:16;5.28;;;2.10;;
66012;SDS011;52783;50.502;8.190;2023-07-16T05:29:41;5.80;;;2.15;;
66012;SDS011;52783;50.502;8.190;2023-07-16T05:32:07;6.80;;;2.28;;
66012;SDS011;52783;50.502;8.190;2023-07-16T05:34:33;7.88;;;2.50;;
66012;SDS011;52783;50.502;8.190;2023-07-16T05:36:58;7.50;;;2.22;;
66012;SDS011;52783;50.502;8.190;2023-07-16T05:39:24;25.38;;;3.13;;
66012;SDS011;52783;50.502;8.190;2023-07-16T05:41:50;6.78;;;2.40;;
66012;SDS011;52783;50.502;8.190;2023-07-16T05:44:15;5.53;;;2.33;;
66012;SDS011;52783;50.502;8.190;2023-07-16T05:46:41;6.32;;;2.45;;
66012;SDS011;52783;50.502;8.190;2023-07-16T05:49:07;10.63;;;2.35;;
66012;SDS011;52783;50.502;8.190;2023-07-16T05:51:32;6.55;;;2.42;;
66012;SDS011;52783;50.502;8.190;2023-07-16T05:53:58;9.07;;;2.83;;
66012;SDS011;52783;50.502;8.190;2023-07-16T05:56:23;7.07;;;2.38;;
66012;SDS011;52783;50.502;8.190;2023-07-16T05:58:49;8.68;;;2.30;;
66012;SDS011;52783;50.502;8.190;2023-07-16T06:01:14;6.43;;;2.58;;
66012;SDS011;52783;50.502;8.190;2023-07-16T06:03:40;6.15;;;2.25;;
66012;SDS011;52783;50.502;8.190;2023-07-16T06:06:08;7.63;;;2.40;;
66012;SDS011;52783;50.502;8.190;2023-07-16T06:08:34;6.57;;;2.65;;
66012;SDS011;52783;50.502;8.190;2023-07-16T06:10:59;9.95;;;2.70;;
66012;SDS011;52783;50.502;8.190;2023-07-16T06:13:25;7.20;;;2.55;;
66012;SDS011;52783;50.502;8.190;2023-07-16T06:15:51;7.05;;;2.58;;
66012;SDS011;52783;50.502;8.190;2023-07-16T06:18:16;9.48;;;2.80;;
66012;SDS011;52783;50.502;8.190;2023-07-16T06:20:45;5.32;;;2.50;;
66012;SDS011;52783;50.502;8.190;2023-07-16T06:23:11;7.35;;;2.72;;
66012;SDS011;52783;50.502;8.190;2023-07-16T06:25:38;10.05;;;3.13;;
66012;SDS011;52783;50.502;8.190;2023-07-16T06:28:05;8.55;;;2.85;;
66012;SDS011;52783;50.502;8.190;2023-07-16T06:30:31;6.50;;;2.88;;
66012;SDS011;52783;50.502;8.190;2023-07-16T06:32:58;8.75;;;2.83;;
66012;SDS011;52783;50.502;8.190;2023-07-16T06:35:24;8.93;;;2.90;;
66012;SDS011;52783;50.502;8.190;2023-07-16T06:37:49;10.23;;;2.67;;
66012;SDS011;52783;50.502;8.190;2023-07-16T06:40:15;5.18;;;2.63;;
66012;SDS011;52783;50.502;8.190;2023-07-16T06:42:41;11.93;;;2.83;;
66012;SDS011;52783;50.502;8.190;2023-07-16T06:45:06;7.00;;;2.90;;
66012;SDS011;52783;50.502;8.190;2023-07-16T06:47:32;7.32;;;2.60;;
66012;SDS011;52783;50.502;8.190;2023-07-16T06:49:58;8.15;;;2.95;;
66012;SDS011;52783;50.502;8.190;2023-07-16T06:52:24;8.18;;;2.60;;
66012;SDS011;52783;50.502;8.190;2023-07-16T06:54:52;7.70;;;3.00;;
66012;SDS011;52783;50.502;8.190;2023-07-16T06:57:24;13.80;;;3.20;;
66012;SDS011;52783;50.502;8.190;2023-07-16T06:59:50;17.63;;;3.00;;
66012;SDS011;52783;50.502;8.190;2023-07-16T07:02:16;9.50;;;3.00;;
66012;SDS011;52783;50.502;8.190;2023-07-16T07:04:42;9.13;;;2.75;;
66012;SDS011;52783;50.502;8.190;2023-07-16T07:07:08;8.43;;;2.78;;
66012;SDS011;52783;50.502;8.190;2023-07-16T07:09:33;7.53;;;3.00;;
66012;SDS011;52783;50.502;8.190;2023-07-16T07:11:59;12.80;;;2.85;;
66012;SDS011;52783;50.502;8.190;2023-07-16T07:14:25;9.57;;;2.97;;
66012;SDS011;52783;50.502;8.190;2023-07-16T07:16:51;16.38;;;3.47;;
66012;SDS011;52783;50.502;8.190;2023-07-16T07:19:17;7.13;;;3.40;;
66012;SDS011;52783;50.502;8.190;2023-07-16T07:21:42;8.52;;;3.03;;
66012;SDS011;52783;50.502;8.190;2023-07-16T07:24:08;13.48;;;3.08;;
66012;SDS011;52783;50.502;8.190;2023-07-16T07:26:34;10.60;;;2.85;;
66012;SDS011;52783;50.502;8.190;2023-07-16T07:28:59;7.75;;;3.17;;
66012;SDS011;52783;50.502;8.190;2023-07-16T07:31:25;9.45;;;2.70;;
66012;SDS011;52783;50.502;8.190;2023-07-16T07:33:50;7.63;;;2.90;;
66012;SDS011;52783;50.502;8.190;2023-07-16T07:36:17;10.15;;;2.70;;
66012;SDS011;52783;50.502;8.190;2023-07-16T07:38:42;9.93;;;2.90;;
66012;SDS011;52783;50.502;8.190;2023-07-16T07:41:08;9.13;;;2.83;;
66012;SDS011;52783;50.502;8.190;2023-07-16T07:43:34;14.18;;;3.40;;
66012;SDS011;52783;50.502;8.190;2023-07-16T07:45:59;6.88;;;2.78;;
66012;SDS011;52783;50.502;8.190;2023-07-16T07:48:25;8.13;;;2.83;;
66012;SDS011;52783;50.502;8.190;2023-07-16T07:50:50;7.07;;;2.90;;
66012;SDS011;52783;50.502;8.190;2023-07-16T07:53:16;7.82;;;2.78;;
66012;SDS011;52783;50.502;8.190;2023-07-16T07:55:43;7.70;;;2.60;;
66012;SDS011;52783;50.502;8.190;2023-07-16T07:58:10;7.20;;;3.15;;
66012;SDS011;52783;50.502;8.190;2023-07-16T08:00:38;6.07;;;2.83;;
66012;SDS011;52783;50.502;8.190;2023-07-16T08:03:20;9.85;;;2.90;;
66012;SDS011;52783;50.502;8.190;2023-07-16T08:05:48;9.02;;;2.80;;
66012;SDS011;52783;50.502;8.190;2023-07-16T08:08:14;7.38;;;2.63;;
66012;SDS011;52783;50.502;8.190;2023-07-16T08:10:40;7.40;;;2.97;;
66012;SDS011;52783;50.502;8.190;2023-07-16T08:13:07;9.35;;;2.85;;
66012;SDS011;52783;50.502;8.190;2023-07-16T08:15:33;7.63;;;2.53;;
66012;SDS011;52783;50.502;8.190;2023-07-16T08:17:58;6.70;;;2.88;;
66012;SDS011;52783;50.502;8.190;2023-07-16T08:20:25;5.55;;;2.63;;
66012;SDS011;52783;50.502;8.190;2023-07-16T08:22:51;5.03;;;2.58;;
66012;SDS011;52783;50.502;8.190;2023-07-16T08:25:16;5.15;;;2.38;;
66012;SDS011;52783;50.502;8.190;2023-07-16T08:27:43;8.10;;;2.65;;
66012;SDS011;52783;50.502;8.190;2023-07-16T08:30:09;8.18;;;2.58;;
66012;SDS011;52783;50.502;8.190;2023-07-16T08:32:35;4.30;;;2.72;;
66012;SDS011;52783;50.502;8.190;2023-07-16T08:35:00;4.60;;;2.25;;
66012;SDS011;52783;50.502;8.190;2023-07-16T08:37:26;4.75;;;2.65;;
66012;SDS011;52783;50.502;8.190;2023-07-16T08:39:52;6.82;;;2.47;;
66012;SDS011;52783;50.502;8.190;2023-07-16T08:42:18;5.55;;;2.38;;
66012;SDS011;52783;50.502;8.190;2023-07-16T08:44:44;6.18;;;2.60;;
66012;SDS011;52783;50.502;8.190;2023-07-16T08:47:11;7.55;;;2.67;;
66012;SDS011;52783;50.502;8.190;2023-07-16T08:49:36;5.43;;;2.72;;
66012;SDS011;52783;50.502;8.190;2023-07-16T08:52:04;10.80;;;3.20;;
66012;SDS011;52783;50.502;8.190;2023-07-16T08:54:31;6.00;;;2.53;;
66012;SDS011;52783;50.502;8.190;2023-07-16T08:56:57;4.45;;;2.78;;
66012;SDS011;52783;50.502;8.190;2023-07-16T08:59:22;4.13;;;2.40;;
66012;SDS011;52783;50.502;8.190;2023-07-16T09:01:48;10.88;;;2.60;;
66012;SDS011;52783;50.502;8.190;2023-07-16T09:04:15;3.95;;;2.42;;
66012;SDS011;52783;50.502;8.190;2023-07-16T09:06:41;4.25;;;2.50;;
66012;SDS011;52783;50.502;8.190;2023-07-16T09:09:07;5.30;;;2.72;;
66012;SDS011;52783;50.502;8.190;2023-07-16T09:11:33;6.35;;;2.40;;
66012;SDS011;52783;50.502;8.190;2023-07-16T09:14:01;8.27;;;2.78;;
66012;SDS011;52783;50.502;8.190;2023-07-16T09:16:26;5.10;;;2.72;;
66012;SDS011;52783;50.502;8.190;2023-07-16T09:19:03;7.78;;;2.75;;
66012;SDS011;52783;50.502;8.190;2023-07-16T09:21:31;6.95;;;2.60;;
66012;SDS011;52783;50.502;8.190;2023-07-16T09:23:59;5.07;;;2.40;;
66012;SDS011;52783;50.502;8.190;2023-07-16T09:26:24;15.85;;;3.15;;
66012;SDS011;52783;50.502;8.190;2023-07-16T09:28:50;4.30;;;2.42;;
66012;SDS011;52783;50.502;8.190;2023-07-16T09:31:15;11.85;;;2.70;;
66012;SDS011;52783;50.502;8.190;2023-07-16T09:33:41;5.45;;;2.70;;
66012;SDS011;52783;50.502;8.190;2023-07-16T09:36:06;6.15;;;2.88;;
66012;SDS011;52783;50.502;8.190;2023-07-16T09:38:32;10.40;;;2.90;;
66012;SDS011;52783;50.502;8.190;2023-07-16T09:40:59;5.43;;;2.80;;
66012;SDS011;52783;50.502;8.190;2023-07-16T09:43:28;8.10;;;2.58;;
66012;SDS011;52783;50.502;8.190;2023-07-16T09:45:53;4.93;;;2.70;;
66012;SDS011;52783;50.502;8.190;2023-07-16T09:48:19;6.38;;;2.65;;
66012;SDS011;52783;50.502;8.190;2023-07-16T09:50:48;10.00;;;2.75;;
66012;SDS011;52783;50.502;8.190;2023-07-16T09:53:17;6.80;;;2.80;;
66012;SDS011;52783;50.502;8.190;2023-07-16T09:55:44;6.70;;;2.88;;
66012;SDS011;52783;50.502;8.190;2023-07-16T09:58:11;8.48;;;2.97;;
66012;SDS011;52783;50.502;8.190;2023-07-16T10:00:38;5.97;;;2.65;;
66012;SDS011;52783;50.502;8.190;2023-07-16T10:03:05;12.52;;;2.83;;
66012;SDS011;52783;50.502;8.190;2023-07-16T10:05:35;8.90;;;2.80;;
66012;SDS011;52783;50.502;8.190;2023-07-16T10:08:02;6.13;;;2.80;;
66012;SDS011;52783;50.502;8.190;2023-07-16T10:10:47;8.98;;;2.70;;
66012;SDS011;52783;50.502;8.190;2023-07-16T10:13:18;3.75;;;2.60;;
66012;SDS011;52783;50.502;8.190;2023-07-16T10:18:37;9.90;;;2.75;;
66012;SDS011;52783;50.502;8.190;2023-07-16T10:21:04;8.75;;;2.90;;
66012;SDS011;52783;50.502;8.190;2023-07-16T10:23:40;7.20;;;3.08;;
66012;SDS011;52783;50.502;8.190;2023-07-16T10:26:07;5.07;;;2.85;;
66012;SDS011;52783;50.502;8.190;2023-07-16T10:28:35;6.82;;;2.78;;
66012;SDS011;52783;50.502;8.190;2023-07-16T10:31:01;7.72;;;2.92;;
66012;SDS011;52783;50.502;8.190;2023-07-16T10:33:27;7.43;;;3.03;;
66012;SDS011;52783;50.502;8.190;2023-07-16T10:35:53;6.80;;;3.00;;
66012;SDS011;52783;50.502;8.190;2023-07-16T10:38:21;8.65;;;2.95;;
66012;SDS011;52783;50.502;8.190;2023-07-16T10:40:46;10.48;;;3.10;;
66012;SDS011;52783;50.502;8.190;2023-07-16T10:43:12;5.07;;;2.95;;
66012;SDS011;52783;50.502;8.190;2023-07-16T10:45:37;9.65;;;2.97;;
66012;SDS011;52783;50.502;8.190;2023-07-16T10:48:04;5.30;;;2.75;;
66012;SDS011;52783;50.502;8.190;2023-07-16T10:50:32;6.43;;;3.03;;
66012;SDS011;52783;50.502;8.190;2023-07-16T10:52:59;7.68;;;2.95;;
66012;SDS011;52783;50.502;8.190;2023-07-16T10:55:26;8.05;;;3.00;;
66012;SDS011;52783;50.502;8.190;2023-07-16T10:57:53;7.55;;;3.10;;
66012;SDS011;52783;50.502;8.190;2023-07-16T11:00:19;10.15;;;2.90;;
66012;SDS011;52783;50.502;8.190;2023-07-16T11:02:46;6.90;;;2.88;;
66012;SDS011;52783;50.502;8.190;2023-07-16T11:05:15;8.57;;;3.03;;
66012;SDS011;52783;50.502;8.190;2023-07-16T11:07:48;5.50;;;2.75;;
66012;SDS011;52783;50.502;8.190;2023-07-16T11:10:17;10.80;;;2.90;;
66012;SDS011;52783;50.502;8.190;2023-07-16T11:12:43;7.55;;;3.20;;
66012;SDS011;52783;50.502;8.190;2023-07-16T11:15:10;6.93;;;2.90;;
66012;SDS011;52783;50.502;8.190;2023-07-16T11:17:39;6.80;;;3.10;;
66012;SDS011;52783;50.502;8.190;2023-07-16T11:20:07;5.70;;;2.88;;
66012;SDS011;52783;50.502;8.190;2023-07-16T11:22:36;4.28;;;2.58;;
66012;SDS011;52783;50.502;8.190;2023-07-16T11:25:03;8.40;;;2.72;;
66012;SDS011;52783;50.502;8.190;2023-07-16T11:27:32;6.20;;;2.60;;
66012;SDS011;52783;50.502;8.190;2023-07-16T11:29:58;7.78;;;3.22;;
66012;SDS011;52783;50.502;8.190;2023-07-16T11:34:59;5.13;;;2.60;;
66012;SDS011;52783;50.502;8.190;2023-07-16T11:37:30;8.23;;;3.25;;
66012;SDS011;52783;50.502;8.190;2023-07-16T11:39:57;6.00;;;2.78;;
66012;SDS011;52783;50.502;8.190;2023-07-16T11:42:33;5.63;;;2.70;;
66012;SDS011;52783;50.502;8.190;2023-07-16T11:45:14;5.00;;;2.67;;
66012;SDS011;52783;50.502;8.190;2023-07-16T11:47:48;8.23;;;2.88;;
66012;SDS011;52783;50.502;8.190;2023-07-16T11:50:14;7.03;;;3.25;;
66012;SDS011;52783;50.502;8.190;2023-07-16T11:52:40;10.98;;;3.08;;
66012;SDS011;52783;50.502;8.190;2023-07-16T11:55:06;6.80;;;2.72;;
66012;SDS011;52783;50.502;8.190;2023-07-16T11:57:32;7.38;;;2.80;;
66012;SDS011;52783;50.502;8.190;2023-07-16T11:59:58;9.20;;;2.95;;
66012;SDS011;52783;50.502;8.190;2023-07-16T12:02:25;4.80;;;2.80;;
66012;SDS011;52783;50.502;8.190;2023-07-16T12:04:52;8.55;;;3.45;;
66012;SDS011;52783;50.502;8.190;2023-07-16T12:07:34;7.45;;;3.00;;
66012;SDS011;52783;50.502;8.190;2023-07-16T12:10:05;8.07;;;2.75;;
66012;SDS011;52783;50.502;8.190;2023-07-16T12:12:32;9.05;;;2.65;;
66012;SDS011;52783;50.502;8.190;2023-07-16T12:14:58;5.57;;;2.78;;
66012;SDS011;52783;50.502;8.190;2023-07-16T12:17:24;11.05;;;3.05;;
66012;SDS011;52783;50.502;8.190;2023-07-16T12:19:50;6.15;;;2.97;;
66012;SDS011;52783;50.502;8.190;2023-07-16T12:22:16;8.02;;;3.00;;
66012;SDS011;52783;50.502;8.190;2023-07-16T12:24:43;7.03;;;2.78;;
66012;SDS011;52783;50.502;8.190;2023-07-16T12:27:09;6.93;;;3.13;;
66012;SDS011;52783;50.502;8.190;2023-07-16T12:29:34;7.28;;;2.70;;
66012;SDS011;52783;50.502;8.190;2023-07-16T12:32:00;4.90;;;3.00;;
66012;SDS011;52783;50.502;8.190;2023-07-16T12:34:25;9.43;;;3.20;;
66012;SDS011;52783;50.502;8.190;2023-07-16T12:36:51;7.97;;;3.10;;
66012;SDS011;52783;50.502;8.190;2023-07-16T12:39:17;7.07;;;3.03;;
66012;SDS011;52783;50.502;8.190;2023-07-16T12:41:43;6.28;;;2.95;;
66012;SDS011;52783;50.502;8.190;2023-07-16T12:44:08;6.70;;;2.80;;
66012;SDS011;52783;50.502;8.190;2023-07-16T12:46:34;10.38;;;3.08;;
66012;SDS011;52783;50.502;8.190;2023-07-16T12:48:59;6.18;;;3.20;;
66012;SDS011;52783;50.502;8.190;2023-07-16T12:51:25;10.13;;;3.15;;
66012;SDS011;52783;50.502;8.190;2023-07-16T12:53:51;10.93;;;3.42;;
66012;SDS011;52783;50.502;8.190;2023-07-16T12:56:16;6.00;;;2.88;;
66012;SDS011;52783;50.502;8.190;2023-07-16T12:58:42;7.68;;;3.30;;
66012;SDS011;52783;50.502;8.190;2023-07-16T13:01:07;7.38;;;3.13;;
66012;SDS011;52783;50.502;8.190;2023-07-16T13:03:33;7.50;;;3.38;;
66012;SDS011;52783;50.502;8.190;2023-07-16T13:05:58;6.70;;;3.08;;
66012;SDS011;52783;50.502;8.190;2023-07-16T13:08:24;6.32;;;3.10;;
66012;SDS011;52783;50.502;8.190;2023-07-16T13:10:49;6.47;;;2.92;;
66012;SDS011;52783;50.502;8.190;2023-07-16T13:13:15;7.25;;;3.65;;
66012;SDS011;52783;50.502;8.190;2023-07-16T13:15:41;7.78;;;3.53;;
66012;SDS011;52783;50.502;8.190;2023-07-16T13:18:09;5.60;;;2.92;;
66012;SDS011;52783;50.502;8.190;2023-07-16T13:20:36;8.60;;;3.25;;
66012;SDS011;52783;50.502;8.190;2023-07-16T13:23:02;6.47;;;3.08;;
66012;SDS011;52783;50.502;8.190;2023-07-16T13:25:28;8.55;;;3.05;;
66012;SDS011;52783;50.502;8.190;2023-07-16T13:27:54;8.07;;;3.65;;
66012;SDS011;52783;50.502;8.190;2023-07-16T13:30:20;6.55;;;3.40;;
66012;SDS011;52783;50.502;8.190;2023-07-16T13:32:46;5.80;;;3.38;;
66012;SDS011;52783;50.502;8.190;2023-07-16T13:35:13;6.45;;;3.40;;
66012;SDS011;52783;50.502;8.190;2023-07-16T13:37:40;7.45;;;3.50;;
66012;SDS011;52783;50.502;8.190;2023-07-16T13:40:06;7.60;;;3.35;;
66012;SDS011;52783;50.502;8.190;2023-07-16T13:42:32;11.32;;;3.47;;
66012;SDS011;52783;50.502;8.190;2023-07-16T13:44:58;13.05;;;3.80;;
66012;SDS011;52783;50.502;8.190;2023-07-16T13:47:23;5.05;;;3.00;;
66012;SDS011;52783;50.502;8.190;2023-07-16T13:49:50;12.05;;;3.63;;
66012;SDS011;52783;50.502;8.190;2023-07-16T13:52:16;5.53;;;3.35;;
66012;SDS011;52783;50.502;8.190;2023-07-16T13:54:41;8.75;;;3.95;;
66012;SDS011;52783;50.502;8.190;2023-07-16T13:57:07;7.35;;;3.50;;
66012;SDS011;52783;50.502;8.190;2023-07-16T13:59:34;5.68;;;3.50;;
66012;SDS011;52783;50.502;8.190;2023-07-16T14:02:00;8.07;;;3.53;;
66012;SDS011;52783;50.502;8.190;2023-07-16T14:04:27;6.53;;;3.60;;
66012;SDS011;52783;50.502;8.190;2023-07-16T14:06:53;7.57;;;3.22;;
66012;SDS011;52783;50.502;8.190;2023-07-16T14:09:18;8.52;;;3.95;;
66012;SDS011;52783;50.502;8.190;2023-07-16T14:11:44;8.95;;;3.85;;
66012;SDS011;52783;50.502;8.190;2023-07-16T14:14:13;10.95;;;3.75;;
66012;SDS011;52783;50.502;8.190;2023-07-16T14:16:39;6.00;;;3.63;;
66012;SDS011;52783;50.502;8.190;2023-07-16T14:19:04;5.28;;;3.33;;
66012;SDS011;52783;50.502;8.190;2023-07-16T14:21:30;7.30;;;3.50;;
66012;SDS011;52783;50.502;8.190;2023-07-16T14:23:56;10.50;;;3.75;;
66012;SDS011;52783;50.502;8.190;2023-07-16T14:26:21;7.97;;;3.65;;
66012;SDS011;52783;50.502;8.190;2023-07-16T14:28:47;10.30;;;3.90;;
66012;SDS011;52783;50.502;8.190;2023-07-16T14:31:12;9.10;;;3.60;;
66012;SDS011;52783;50.502;8.190;2023-07-16T14:33:39;13.80;;;3.97;;
66012;SDS011;52783;50.502;8.190;2023-07-16T14:36:04;10.82;;;4.10;;
66012;SDS011;52783;50.502;8.190;2023-07-16T14:38:30;6.95;;;3.60;;
66012;SDS011;52783;50.502;8.190;2023-07-16T14:40:55;5.93;;;3.60;;
66012;SDS011;52783;50.502;8.190;2023-07-16T14:43:21;8.15;;;3.97;;
66012;SDS011;52783;50.502;8.190;2023-07-16T14:45:47;7.13;;;3.60;;
66012;SDS011;52783;50.502;8.190;2023-07-16T14:48:12;8.20;;;3.92;;
66012;SDS011;52783;50.502;8.190;2023-07-16T14:50:38;7.75;;;3.88;;
66012;SDS011;52783;50.502;8.190;2023-07-16T14:53:04;10.23;;;3.70;;